createdAt,value
2023-03-31T00:01:12.967Z,2.38
2023-03-31T00:03:43.855Z,2.38
2023-03-31T00:08:51.595Z,2.42
2023-03-31T00:11:22.095Z,2.25
2023-03-31T00:13:49.686Z,2.38
2023-03-31T00:16:17.257Z,2.22
2023-03-31T00:18:50.819Z,2.30
2023-03-31T00:21:25.562Z,2.40
2023-03-31T00:24:01.577Z,2.20
2023-03-31T00:26:30.591Z,2.63
2023-03-31T00:28:58.960Z,2.75
2023-03-31T00:31:28.340Z,2.90
2023-03-31T00:33:56.501Z,3.63
2023-03-31T00:36:27.698Z,2.80
2023-03-31T00:39:02.537Z,3.25
2023-03-31T00:41:30.790Z,2.95
2023-03-31T00:44:02.319Z,2.63
2023-03-31T00:47:12.005Z,2.75
2023-03-31T00:49:47.138Z,3.00
2023-03-31T00:52:35.697Z,2.78
2023-03-31T00:55:14.096Z,2.47
2023-03-31T00:57:46.680Z,2.25
2023-03-31T01:00:16.337Z,2.35
2023-03-31T01:02:52.357Z,2.30
2023-03-31T01:05:37.013Z,2.40
2023-03-31T01:08:06.001Z,2.28
2023-03-31T01:10:41.743Z,2.65
2023-03-31T01:13:13.105Z,2.40
2023-03-31T01:15:42.176Z,2.75
2023-03-31T01:18:11.622Z,2.53
2023-03-31T01:21:38.493Z,2.50
2023-03-31T01:25:14.763Z,2.40
2023-03-31T01:27:59.221Z,2.63
2023-03-31T01:30:45.409Z,2.53
2023-03-31T01:33:43.788Z,1.98
2023-03-31T01:36:36.293Z,2.55
2023-03-31T01:39:15.729Z,2.33
2023-03-31T01:41:58.500Z,1.98
2023-03-31T01:44:44.578Z,2.50
2023-03-31T01:47:23.020Z,2.00
2023-03-31T01:50:11.420Z,2.33
2023-03-31T01:52:53.197Z,2.28
2023-03-31T01:58:36.093Z,2.55
2023-03-31T02:01:16.608Z,1.83
2023-03-31T02:03:55.593Z,2.42
2023-03-31T02:06:31.893Z,2.28
2023-03-31T02:09:08.904Z,2.72
2023-03-31T02:11:40.884Z,2.70
2023-03-31T02:14:18.836Z,2.63
2023-03-31T02:17:27.976Z,2.78
2023-03-31T02:20:26.824Z,2.85
2023-03-31T02:22:58.058Z,2.47
2023-03-31T02:25:36.673Z,3.08
2023-03-31T02:28:18.271Z,2.53
2023-03-31T02:31:22.670Z,2.80
2023-03-31T02:33:50.412Z,3.05
2023-03-31T02:36:19.170Z,2.78
2023-03-31T02:38:55.218Z,3.08
2023-03-31T02:41:23.201Z,3.05
2023-03-31T02:43:50.732Z,3.55
2023-03-31T02:46:18.422Z,3.25
2023-03-31T02:48:53.313Z,3.03
2023-03-31T02:51:54.822Z,2.85
2023-03-31T02:54:59.778Z,3.00
2023-03-31T02:57:47.013Z,3.13
2023-03-31T03:00:39.830Z,3.30
2023-03-31T03:03:43.357Z,2.78
2023-03-31T03:06:41.908Z,3.08
2023-03-31T03:09:41.814Z,3.70
2023-03-31T03:12:13.443Z,3.42
2023-03-31T03:14:55.732Z,2.80
2023-03-31T03:17:36.314Z,3.10
2023-03-31T03:20:10.718Z,3.13
2023-03-31T03:22:40.596Z,3.25
2023-03-31T03:25:12.930Z,3.35
2023-03-31T03:27:40.821Z,3.40
2023-03-31T03:30:12.174Z,3.50
2023-03-31T03:32:40.057Z,3.15
2023-03-31T03:35:08.997Z,3.38
2023-03-31T03:37:37.368Z,3.83
2023-03-31T03:40:06.281Z,3.20
2023-03-31T03:42:35.301Z,3.40
2023-03-31T03:45:02.989Z,3.42
2023-03-31T03:47:30.728Z,3.28
2023-03-31T03:49:58.239Z,4.15
2023-03-31T03:52:25.807Z,3.42
2023-03-31T03:54:53.390Z,2.95
2023-03-31T03:57:21.058Z,3.22
2023-03-31T03:59:48.646Z,3.28
2023-03-31T04:02:16.237Z,3.83
2023-03-31T04:04:43.740Z,2.80
2023-03-31T04:07:11.390Z,2.97
2023-03-31T04:09:38.875Z,2.88
2023-03-31T04:12:06.366Z,3.17
2023-03-31T04:14:33.876Z,2.85
2023-03-31T04:17:03.384Z,3.08
2023-03-31T04:19:31.285Z,3.28
2023-03-31T04:22:02.796Z,3.33
2023-03-31T04:24:33.572Z,2.80
2023-03-31T04:27:03.094Z,3.08
2023-03-31T04:29:33.947Z,2.72
2023-03-31T04:32:01.595Z,2.85
2023-03-31T04:34:35.218Z,2.83
2023-03-31T04:37:04.132Z,3.38
2023-03-31T04:39:31.781Z,3.15
2023-03-31T04:42:01.132Z,2.95
2023-03-31T04:44:29.732Z,3.20
2023-03-31T04:46:58.864Z,2.90
2023-03-31T04:49:26.388Z,3.10
2023-03-31T04:51:53.934Z,2.85
2023-03-31T04:54:21.335Z,2.72
2023-03-31T04:56:48.766Z,2.60
2023-03-31T04:59:16.338Z,3.05
2023-03-31T05:01:45.360Z,3.00
2023-03-31T05:04:13.137Z,2.50
2023-03-31T05:06:42.849Z,2.50
2023-03-31T05:09:10.597Z,2.45
2023-03-31T05:11:39.516Z,3.03
2023-03-31T05:14:07.116Z,2.75
2023-03-31T05:16:34.689Z,2.53
2023-03-31T05:19:08.013Z,2.35
2023-03-31T05:21:35.543Z,2.63
2023-03-31T05:24:06.495Z,2.70
2023-03-31T05:26:34.227Z,2.42
2023-03-31T05:29:01.718Z,2.83
2023-03-31T05:31:29.246Z,2.38
2023-03-31T05:33:56.804Z,2.50
2023-03-31T05:36:27.157Z,2.28
2023-03-31T05:38:54.783Z,2.20
2023-03-31T05:41:24.496Z,1.95
2023-03-31T05:43:52.019Z,1.80
2023-03-31T05:46:20.136Z,2.40
2023-03-31T05:48:47.875Z,2.00
2023-03-31T05:51:15.478Z,1.88
2023-03-31T05:53:43.055Z,2.30
2023-03-31T05:56:10.828Z,2.10
2023-03-31T05:58:38.685Z,1.90
2023-03-31T06:01:14.286Z,1.50
2023-03-31T06:03:43.708Z,1.88
2023-03-31T06:06:13.295Z,2.03
2023-03-31T06:08:42.012Z,2.00
2023-03-31T06:11:15.024Z,2.05
2023-03-31T06:13:43.174Z,1.65
2023-03-31T06:16:13.172Z,1.65
2023-03-31T06:18:41.616Z,1.88
2023-03-31T06:21:16.558Z,2.58
2023-03-31T06:23:45.609Z,2.25
2023-03-31T06:26:19.178Z,2.10
2023-03-31T06:28:46.994Z,1.67
2023-03-31T06:31:18.453Z,2.08
2023-03-31T06:33:47.231Z,2.53
2023-03-31T06:36:19.470Z,2.17
2023-03-31T06:38:47.798Z,2.47
2023-03-31T06:41:17.450Z,1.77
2023-03-31T06:43:45.190Z,1.90
2023-03-31T06:46:13.338Z,1.80
2023-03-31T06:48:42.043Z,2.30
2023-03-31T06:51:10.309Z,2.15
2023-03-31T06:53:38.809Z,1.90
2023-03-31T06:56:07.483Z,2.25
2023-03-31T06:58:36.729Z,1.77
2023-03-31T07:01:08.235Z,2.42
2023-03-31T07:03:37.327Z,1.90
2023-03-31T07:06:05.505Z,2.15
2023-03-31T07:08:33.170Z,2.75
2023-03-31T07:11:02.149Z,2.33
2023-03-31T07:13:29.849Z,2.95
2023-03-31T07:15:57.550Z,2.53
2023-03-31T07:18:34.231Z,2.42
2023-03-31T07:21:05.730Z,2.17
2023-03-31T07:23:35.724Z,2.38
2023-03-31T07:26:03.657Z,3.03
2023-03-31T07:28:31.908Z,2.83
2023-03-31T07:30:59.651Z,3.45
2023-03-31T07:33:27.150Z,2.70
2023-03-31T07:36:10.271Z,2.60
2023-03-31T07:38:46.942Z,3.00
2023-03-31T07:41:20.893Z,3.00
2023-03-31T07:43:49.633Z,2.40
2023-03-31T07:46:22.801Z,3.17
2023-03-31T07:48:51.975Z,2.55
2023-03-31T07:51:23.041Z,2.78
2023-03-31T07:53:52.630Z,2.88
2023-03-31T07:56:24.190Z,2.72
2023-03-31T07:58:54.384Z,3.00
2023-03-31T08:01:25.923Z,2.90
2023-03-31T08:03:55.385Z,3.72
2023-03-31T08:06:25.627Z,3.08
2023-03-31T08:08:53.237Z,2.70
2023-03-31T08:11:21.507Z,2.58
2023-03-31T08:13:49.469Z,1.73
2023-03-31T08:16:17.225Z,1.70
2023-03-31T08:18:44.748Z,2.15
2023-03-31T08:21:12.206Z,1.73
2023-03-31T08:23:39.653Z,2.15
2023-03-31T08:26:19.392Z,2.20
2023-03-31T08:28:48.992Z,2.30
2023-03-31T08:31:19.168Z,3.05
2023-03-31T08:33:47.773Z,2.65
2023-03-31T08:36:15.366Z,2.88
2023-03-31T08:38:48.006Z,2.30
2023-03-31T08:41:24.878Z,2.95
2023-03-31T08:43:56.888Z,2.67
2023-03-31T08:46:30.556Z,2.80
2023-03-31T08:49:01.213Z,3.25
2023-03-31T08:51:41.299Z,2.80
2023-03-31T08:54:20.748Z,2.72
2023-03-31T08:56:51.204Z,3.30
2023-03-31T08:59:32.289Z,3.50
2023-03-31T09:02:36.952Z,2.93
2023-03-31T09:06:12.898Z,3.42
2023-03-31T09:08:41.322Z,3.10
2023-03-31T09:11:36.528Z,3.58
2023-03-31T09:14:31.284Z,3.00
2023-03-31T09:17:21.586Z,3.97
2023-03-31T09:19:58.946Z,3.20
2023-03-31T09:22:34.584Z,3.30
2023-03-31T09:25:19.505Z,3.25
2023-03-31T09:27:49.722Z,3.58
2023-03-31T09:30:26.555Z,3.53
2023-03-31T09:33:14.681Z,4.75
2023-03-31T09:35:44.424Z,3.58
2023-03-31T09:38:16.169Z,3.53
2023-03-31T09:40:43.955Z,3.65
2023-03-31T09:43:30.451Z,3.03
2023-03-31T09:46:09.354Z,3.33
2023-03-31T09:48:40.113Z,3.13
2023-03-31T09:51:24.547Z,3.40
2023-03-31T09:54:29.019Z,3.55
2023-03-31T09:56:56.650Z,3.10
2023-03-31T09:59:34.157Z,3.15
2023-03-31T10:02:28.660Z,3.72
2023-03-31T10:04:56.729Z,3.38
2023-03-31T10:07:26.266Z,3.17
2023-03-31T10:09:56.522Z,3.65
2023-03-31T10:12:29.960Z,2.78
2023-03-31T10:15:22.290Z,3.05
2023-03-31T10:20:38.762Z,2.95
2023-03-31T10:23:28.489Z,2.72
2023-03-31T10:25:56.797Z,2.80
2023-03-31T10:28:25.448Z,3.08
2023-03-31T10:30:57.922Z,2.75
2023-03-31T10:33:29.407Z,2.97
2023-03-31T10:36:00.735Z,3.28
2023-03-31T10:38:54.140Z,2.72
2023-03-31T10:41:29.671Z,3.10
2023-03-31T10:44:02.496Z,2.70
2023-03-31T10:46:43.411Z,2.30
2023-03-31T10:49:27.586Z,2.40
2023-03-31T10:51:59.051Z,2.60
2023-03-31T10:54:27.316Z,2.17
2023-03-31T10:56:59.314Z,2.30
2023-03-31T10:59:52.409Z,2.50
2023-03-31T11:03:03.328Z,2.40
2023-03-31T11:05:50.707Z,2.05
2023-03-31T11:08:46.291Z,1.95
2023-03-31T11:11:53.671Z,2.17
2023-03-31T11:14:55.183Z,1.88
2023-03-31T11:18:06.892Z,2.40
2023-03-31T11:21:09.765Z,2.30
2023-03-31T11:23:43.276Z,2.63
2023-03-31T11:26:19.722Z,3.00
2023-03-31T11:29:26.152Z,2.65
2023-03-31T11:32:33.403Z,2.58
2023-03-31T11:35:56.798Z,2.25
2023-03-31T11:39:04.501Z,2.30
2023-03-31T11:41:51.025Z,2.50
2023-03-31T11:44:23.608Z,2.90
2023-03-31T11:47:01.261Z,3.05
2023-03-31T11:49:59.147Z,3.17
2023-03-31T11:52:44.116Z,2.75
2023-03-31T11:55:17.862Z,2.80
2023-03-31T11:57:57.026Z,2.72
2023-03-31T12:00:32.688Z,2.75
2023-03-31T12:03:16.330Z,2.90
2023-03-31T12:05:59.438Z,2.40
2023-03-31T12:08:51.240Z,3.20
2023-03-31T12:11:40.240Z,3.55
2023-03-31T12:14:32.708Z,3.05
2023-03-31T12:17:18.184Z,2.55
2023-03-31T12:19:52.181Z,2.92
2023-03-31T12:22:31.095Z,2.97
2023-03-31T12:24:59.233Z,2.75
2023-03-31T12:27:41.775Z,2.67
2023-03-31T12:30:34.808Z,2.47
2023-03-31T12:33:24.856Z,2.55
2023-03-31T12:36:38.065Z,2.40
2023-03-31T12:39:30.546Z,2.53
2023-03-31T12:42:44.694Z,2.25
2023-03-31T12:45:38.893Z,2.58
2023-03-31T12:48:51.827Z,2.35
2023-03-31T12:51:51.474Z,2.15
2023-03-31T12:54:52.845Z,1.90
2023-03-31T12:57:26.397Z,2.10
2023-03-31T13:00:12.663Z,1.73
2023-03-31T13:02:41.326Z,2.17
2023-03-31T13:05:37.293Z,1.95
2023-03-31T13:08:07.526Z,2.45
2023-03-31T13:10:59.311Z,1.83
2023-03-31T13:13:27.438Z,2.40
2023-03-31T13:15:57.960Z,2.00
2023-03-31T13:18:25.909Z,1.92
2023-03-31T13:23:37.135Z,2.20
2023-03-31T13:26:05.930Z,2.10
2023-03-31T13:28:43.952Z,1.90
2023-03-31T13:31:15.202Z,3.00
2023-03-31T13:34:01.969Z,1.80
2023-03-31T13:37:16.621Z,2.13
2023-03-31T13:40:26.192Z,1.90
2023-03-31T13:43:18.025Z,1.77
2023-03-31T13:46:16.298Z,1.48
2023-03-31T13:49:14.983Z,1.70
2023-03-31T13:51:53.397Z,1.50
2023-03-31T13:55:12.835Z,1.27
2023-03-31T13:58:29.491Z,1.30
2023-03-31T14:01:41.119Z,1.50
2023-03-31T14:04:43.478Z,1.55
2023-03-31T14:07:22.480Z,1.55
2023-03-31T14:09:54.052Z,1.60
2023-03-31T14:15:07.296Z,1.30
2023-03-31T14:17:40.767Z,1.70
2023-03-31T14:20:25.889Z,1.75
2023-03-31T14:23:29.068Z,1.52
2023-03-31T14:26:49.937Z,1.75
2023-03-31T14:29:23.277Z,1.58
2023-03-31T14:32:23.958Z,1.58
2023-03-31T14:35:38.756Z,1.75
2023-03-31T14:38:29.786Z,1.65
2023-03-31T14:41:01.229Z,1.70
2023-03-31T14:46:06.123Z,1.30
2023-03-31T14:48:45.236Z,1.50
2023-03-31T14:51:18.360Z,1.55
2023-03-31T14:53:46.016Z,1.27
2023-03-31T14:56:31.602Z,1.40
2023-03-31T14:59:38.626Z,1.20
2023-03-31T15:02:13.808Z,1.40
2023-03-31T15:04:45.255Z,1.05
2023-03-31T15:07:13.926Z,1.30
2023-03-31T15:09:49.763Z,1.20
2023-03-31T15:12:22.706Z,0.75
2023-03-31T15:14:58.646Z,1.40
2023-03-31T15:17:33.208Z,1.00
2023-03-31T15:20:20.718Z,1.02
2023-03-31T15:22:48.300Z,1.00
2023-03-31T15:25:18.480Z,0.80
2023-03-31T15:28:04.371Z,0.95
2023-03-31T15:30:32.688Z,0.50
2023-03-31T15:33:15.650Z,0.50
2023-03-31T15:35:46.831Z,0.60
2023-03-31T15:38:18.514Z,0.43
2023-03-31T15:43:44.864Z,0.60
2023-03-31T15:46:24.484Z,0.50
2023-03-31T15:48:56.402Z,0.50
2023-03-31T15:51:36.409Z,0.43
2023-03-31T15:54:32.822Z,0.60
2023-03-31T15:57:04.637Z,0.50
2023-03-31T15:59:55.779Z,0.50
2023-03-31T16:02:46.962Z,0.73
2023-03-31T16:05:55.254Z,0.65
2023-03-31T16:08:31.401Z,0.60
2023-03-31T16:11:13.426Z,0.57
2023-03-31T16:13:49.095Z,0.50
2023-03-31T16:16:23.133Z,0.77
2023-03-31T16:19:00.296Z,0.77
2023-03-31T16:21:38.014Z,0.50
2023-03-31T16:24:06.868Z,0.68
2023-03-31T16:26:36.834Z,0.73
2023-03-31T16:29:05.559Z,0.70
2023-03-31T16:31:40.925Z,0.70
2023-03-31T16:34:11.273Z,0.77
2023-03-31T16:36:39.614Z,0.60
2023-03-31T16:39:07.919Z,0.90
2023-03-31T16:41:38.217Z,0.70
2023-03-31T16:44:06.513Z,0.70
2023-03-31T16:46:34.619Z,1.10
2023-03-31T16:49:02.364Z,1.08
2023-03-31T16:51:30.078Z,0.98
2023-03-31T16:53:59.392Z,1.42
2023-03-31T16:56:27.296Z,0.80
2023-03-31T16:58:55.159Z,1.17
2023-03-31T17:01:22.749Z,1.02
2023-03-31T17:03:50.712Z,1.00
2023-03-31T17:06:18.646Z,1.05
2023-03-31T17:08:46.541Z,0.93
2023-03-31T17:11:14.511Z,1.13
2023-03-31T17:13:44.683Z,0.70
2023-03-31T17:18:43.839Z,1.00
2023-03-31T17:21:14.663Z,0.93
2023-03-31T17:23:42.833Z,1.17
2023-03-31T17:26:15.513Z,0.70
2023-03-31T17:28:43.879Z,0.90
2023-03-31T17:31:17.726Z,0.90
2023-03-31T17:33:46.378Z,0.80
2023-03-31T17:36:15.618Z,0.90
2023-03-31T17:38:43.681Z,1.08
2023-03-31T17:41:14.222Z,0.88
2023-03-31T17:43:45.969Z,0.80
2023-03-31T17:46:14.014Z,0.70
2023-03-31T17:48:44.758Z,0.80
2023-03-31T17:51:20.701Z,1.00
2023-03-31T17:53:49.178Z,0.82
2023-03-31T17:56:18.044Z,0.90
2023-03-31T17:58:46.714Z,1.15
2023-03-31T18:01:15.111Z,1.00
2023-03-31T18:03:43.407Z,0.82
2023-03-31T18:06:13.924Z,1.05
2023-03-31T18:08:43.057Z,0.90
2023-03-31T18:11:11.613Z,0.73
2023-03-31T18:13:40.113Z,0.90
2023-03-31T18:16:11.971Z,0.68
2023-03-31T18:18:40.752Z,1.00
2023-03-31T18:21:13.178Z,1.05
2023-03-31T18:23:41.607Z,1.00
2023-03-31T18:26:13.058Z,0.88
2023-03-31T18:28:41.345Z,1.10
2023-03-31T18:31:10.725Z,1.20
2023-03-31T18:33:39.963Z,1.00
2023-03-31T18:36:14.385Z,1.33
2023-03-31T18:38:42.636Z,1.35
2023-03-31T18:41:10.944Z,1.48
2023-03-31T18:43:39.009Z,1.15
2023-03-31T18:46:07.708Z,1.10
2023-03-31T18:48:35.221Z,1.20
2023-03-31T18:51:03.026Z,1.35
2023-03-31T18:53:31.578Z,1.17
2023-03-31T18:56:01.319Z,1.27
2023-03-31T18:58:31.173Z,1.05
2023-03-31T19:01:01.051Z,0.85
2023-03-31T19:03:29.062Z,1.00
2023-03-31T19:06:05.815Z,1.17
2023-03-31T19:08:33.519Z,1.38
2023-03-31T19:11:16.977Z,1.20
2023-03-31T19:13:44.635Z,1.42
2023-03-31T19:16:13.336Z,1.67
2023-03-31T19:18:41.152Z,1.20
2023-03-31T19:21:08.755Z,1.30
2023-03-31T19:23:36.404Z,1.27
2023-03-31T19:26:04.752Z,1.30
2023-03-31T19:28:32.490Z,1.63
2023-03-31T19:31:04.232Z,1.40
2023-03-31T19:33:32.193Z,0.95
2023-03-31T19:36:00.257Z,1.52
2023-03-31T19:38:31.884Z,1.40
2023-03-31T19:43:30.296Z,1.23
2023-03-31T19:46:00.413Z,1.40
2023-03-31T19:48:33.532Z,1.15
2023-03-31T19:51:08.945Z,1.20
2023-03-31T19:53:39.849Z,1.10
2023-03-31T19:56:12.599Z,1.30
2023-03-31T19:58:41.379Z,1.50
2023-03-31T20:01:21.659Z,1.30
2023-03-31T20:03:53.521Z,1.52
2023-03-31T20:06:26.667Z,1.42
2023-03-31T20:09:02.005Z,1.40
2023-03-31T20:11:32.155Z,1.40
2023-03-31T20:14:01.175Z,1.50
2023-03-31T20:16:31.609Z,1.50
2023-03-31T20:19:04.317Z,1.38
2023-03-31T20:21:37.658Z,1.42
2023-03-31T20:24:06.424Z,1.35
2023-03-31T20:26:35.078Z,1.50
2023-03-31T20:29:04.089Z,1.38
2023-03-31T20:31:38.217Z,1.63
2023-03-31T20:34:12.431Z,1.58
2023-03-31T20:36:43.415Z,1.80
2023-03-31T20:39:14.236Z,1.40
2023-03-31T20:41:42.195Z,1.67
2023-03-31T20:44:15.217Z,1.60
2023-03-31T20:46:44.605Z,1.77
2023-03-31T20:49:12.542Z,1.60
2023-03-31T20:51:42.609Z,1.85
2023-03-31T20:54:10.225Z,1.88
2023-03-31T20:56:40.664Z,2.10
2023-03-31T20:59:12.855Z,1.73
2023-03-31T21:01:42.558Z,1.85
2023-03-31T21:04:11.799Z,2.30
2023-03-31T21:06:59.286Z,1.90
2023-03-31T21:09:27.322Z,2.00
2023-03-31T21:11:54.897Z,2.22
2023-03-31T21:14:22.481Z,2.42
2023-03-31T21:16:50.355Z,2.08
2023-03-31T21:19:17.997Z,2.10
2023-03-31T21:21:45.529Z,2.25
2023-03-31T21:24:13.622Z,2.22
2023-03-31T21:26:41.701Z,2.20
2023-03-31T21:29:09.464Z,2.00
2023-03-31T21:31:37.051Z,2.15
2023-03-31T21:34:04.791Z,2.13
2023-03-31T21:36:32.466Z,2.60
2023-03-31T21:38:59.915Z,2.17
2023-03-31T21:41:30.796Z,2.40
2023-03-31T21:44:00.516Z,2.25
2023-03-31T21:46:32.779Z,2.03
2023-03-31T21:49:01.612Z,2.42
2023-03-31T21:51:29.391Z,2.10
2023-03-31T21:53:57.226Z,2.22
2023-03-31T21:56:28.168Z,2.20
2023-03-31T21:58:57.185Z,2.33
2023-03-31T22:01:25.051Z,2.28
2023-03-31T22:03:53.325Z,2.20
2023-03-31T22:06:22.452Z,2.40
2023-03-31T22:08:50.004Z,2.05
2023-03-31T22:11:18.048Z,2.05
2023-03-31T22:13:45.623Z,2.25
2023-03-31T22:16:21.410Z,2.33
2023-03-31T22:18:50.319Z,2.00
2023-03-31T22:21:22.880Z,2.33
2023-03-31T22:23:53.324Z,1.90
2023-03-31T22:26:22.152Z,2.05
2023-03-31T22:28:50.564Z,2.38
2023-03-31T22:31:19.287Z,2.38
2023-03-31T22:33:47.493Z,2.10
2023-03-31T22:36:15.046Z,2.13
2023-03-31T22:38:43.003Z,1.92
2023-03-31T22:41:10.733Z,2.50
2023-03-31T22:43:38.247Z,2.30
2023-03-31T22:46:08.225Z,1.90
2023-03-31T22:48:36.022Z,2.13
2023-03-31T22:51:07.150Z,2.13
2023-03-31T22:53:34.720Z,1.73
2023-03-31T22:56:07.241Z,2.05
2023-03-31T22:58:35.413Z,1.77
2023-03-31T23:01:05.491Z,2.20
2023-03-31T23:03:33.310Z,1.88
2023-03-31T23:06:05.600Z,2.38
2023-03-31T23:08:35.836Z,1.58
2023-03-31T23:11:08.201Z,1.70
2023-03-31T23:13:36.071Z,1.48
2023-03-31T23:16:06.686Z,1.70
2023-03-31T23:18:35.841Z,2.10
2023-03-31T23:21:07.075Z,1.52
2023-03-31T23:23:34.785Z,1.80
2023-03-31T23:26:04.235Z,1.77
2023-03-31T23:28:35.589Z,1.77
2023-03-31T23:31:04.115Z,1.33
2023-03-31T23:33:31.865Z,1.38
2023-03-31T23:36:03.264Z,1.45
2023-03-31T23:38:32.365Z,1.30
2023-03-31T23:41:02.310Z,1.50
2023-03-31T23:43:30.284Z,1.42
2023-03-31T23:45:58.015Z,1.15
2023-03-31T23:48:25.645Z,1.20
2023-03-31T23:50:53.216Z,1.63
2023-03-31T23:53:20.944Z,1.45
2023-03-31T23:56:11.059Z,1.73
2023-03-31T23:58:40.266Z,1.40
